createdAt,value
2023-05-14T00:01:53.398Z,9.93
2023-05-14T00:04:42.059Z,9.94
2023-05-14T00:07:09.838Z,9.95
2023-05-14T00:09:37.911Z,9.96
2023-05-14T00:12:06.352Z,9.94
2023-05-14T00:14:34.363Z,9.92
2023-05-14T00:17:17.817Z,9.90
2023-05-14T00:19:59.815Z,9.86
2023-05-14T00:22:27.829Z,9.81
2023-05-14T00:24:55.506Z,9.74
2023-05-14T00:27:23.502Z,9.72
2023-05-14T00:29:51.194Z,9.72
2023-05-14T00:36:05.569Z,9.67
2023-05-14T00:38:33.320Z,9.66
2023-05-14T00:41:01.091Z,9.60
2023-05-14T00:43:28.902Z,9.57
2023-05-14T00:45:56.669Z,9.55
2023-05-14T00:48:24.749Z,9.55
2023-05-14T00:50:52.836Z,9.53
2023-05-14T00:53:21.523Z,9.51
2023-05-14T00:55:49.970Z,9.55
2023-05-14T00:58:18.485Z,9.57
2023-05-14T01:00:46.378Z,9.58
2023-05-14T01:03:14.351Z,9.61
2023-05-14T01:05:45.387Z,9.66
2023-05-14T01:08:25.009Z,9.68
2023-05-14T01:11:04.076Z,9.70
2023-05-14T01:13:31.776Z,9.67
2023-05-14T01:16:00.394Z,9.66
2023-05-14T01:25:31.033Z,9.61
2023-05-14T01:28:20.361Z,9.58
2023-05-14T01:30:48.405Z,9.60
2023-05-14T01:33:18.373Z,9.63
2023-05-14T01:35:46.524Z,9.63
2023-05-14T01:38:16.390Z,9.65
2023-05-14T01:40:45.556Z,9.68
2023-05-14T01:43:13.964Z,9.72
2023-05-14T01:45:41.766Z,9.76
2023-05-14T01:48:09.805Z,9.79
2023-05-14T01:50:40.949Z,9.79
2023-05-14T01:53:32.971Z,9.77
2023-05-14T01:56:01.875Z,9.74
2023-05-14T01:58:41.294Z,9.74
2023-05-14T02:01:09.352Z,9.72
2023-05-14T02:03:37.143Z,9.71
2023-05-14T02:06:05.171Z,9.69
2023-05-14T02:08:32.943Z,9.66
2023-05-14T02:11:00.918Z,9.62
2023-05-14T02:13:28.653Z,9.58
2023-05-14T02:15:56.574Z,9.55
2023-05-14T02:18:24.557Z,9.51
2023-05-14T02:20:52.694Z,9.46
2023-05-14T02:23:31.027Z,9.40
2023-05-14T02:26:05.981Z,9.37
2023-05-14T02:28:33.998Z,9.32
2023-05-14T02:31:01.859Z,9.30
2023-05-14T02:33:29.945Z,9.28
2023-05-14T02:35:57.826Z,9.29
2023-05-14T02:38:26.367Z,9.31
2023-05-14T02:40:54.154Z,9.32
2023-05-14T02:43:22.070Z,9.31
2023-05-14T02:45:49.831Z,9.29
2023-05-14T02:48:17.687Z,9.22
2023-05-14T02:50:45.486Z,9.12
2023-05-14T02:53:13.472Z,9.05
2023-05-14T02:55:41.456Z,9.02
2023-05-14T02:58:09.530Z,9.03
2023-05-14T03:00:37.672Z,9.06
2023-05-14T03:03:06.211Z,9.07
2023-05-14T03:05:34.678Z,9.07
2023-05-14T03:08:02.586Z,9.09
2023-05-14T03:10:30.424Z,9.12
2023-05-14T03:12:58.587Z,9.13
2023-05-14T03:15:26.468Z,9.11
2023-05-14T03:17:54.341Z,9.05
2023-05-14T03:20:24.089Z,9.02
2023-05-14T03:22:52.267Z,9.01
2023-05-14T03:25:23.179Z,8.98
2023-05-14T03:27:50.924Z,8.95
2023-05-14T03:30:18.827Z,8.95
2023-05-14T03:32:46.710Z,8.98
2023-05-14T03:35:14.706Z,8.98
2023-05-14T03:37:42.453Z,8.95
2023-05-14T03:40:10.811Z,8.90
2023-05-14T03:42:38.695Z,8.89
2023-05-14T03:45:07.096Z,8.86
2023-05-14T03:47:46.929Z,8.86
2023-05-14T03:50:19.043Z,8.85
2023-05-14T03:52:47.122Z,8.86
2023-05-14T03:55:14.864Z,8.88
2023-05-14T03:57:42.683Z,8.90
2023-05-14T04:00:10.822Z,8.89
2023-05-14T04:02:38.825Z,8.90
2023-05-14T04:05:06.863Z,8.90
2023-05-14T04:07:46.863Z,8.91
2023-05-14T04:10:29.485Z,8.91
2023-05-14T04:12:57.703Z,8.91
2023-05-14T04:15:25.639Z,8.89
2023-05-14T04:17:53.509Z,8.85
2023-05-14T04:20:21.360Z,8.82
2023-05-14T04:22:52.550Z,8.79
2023-05-14T04:25:23.029Z,8.77
2023-05-14T04:27:51.133Z,8.77
2023-05-14T04:30:19.021Z,8.77
2023-05-14T04:33:07.899Z,8.78
2023-05-14T04:35:36.345Z,8.78
2023-05-14T04:38:04.386Z,8.77
2023-05-14T04:40:32.297Z,8.77
2023-05-14T04:43:00.063Z,8.76
2023-05-14T04:45:28.061Z,8.75
2023-05-14T04:47:57.237Z,8.76
2023-05-14T04:50:26.123Z,8.77
2023-05-14T04:52:56.087Z,8.78
2023-05-14T04:55:24.275Z,8.81
2023-05-14T04:58:05.443Z,8.82
2023-05-14T05:00:33.697Z,8.82
2023-05-14T05:03:02.474Z,8.81
2023-05-14T05:05:33.491Z,8.79
2023-05-14T05:08:01.703Z,8.81
2023-05-14T05:10:42.944Z,8.86
2023-05-14T05:13:14.758Z,8.85
2023-05-14T05:15:56.331Z,8.82
2023-05-14T05:18:24.731Z,8.82
2023-05-14T05:20:52.557Z,8.82
2023-05-14T05:23:20.494Z,8.84
2023-05-14T05:25:48.212Z,8.87
2023-05-14T05:28:16.210Z,8.91
2023-05-14T05:30:47.910Z,8.94
2023-05-14T05:33:19.997Z,8.92
2023-05-14T05:35:52.563Z,8.96
2023-05-14T05:38:20.498Z,9.04
2023-05-14T05:40:48.447Z,9.12
2023-05-14T05:43:16.806Z,9.19
2023-05-14T05:45:46.135Z,9.26
2023-05-14T05:48:14.069Z,9.26
2023-05-14T05:50:44.337Z,9.24
2023-05-14T05:53:17.897Z,9.27
2023-05-14T05:55:45.897Z,9.31
2023-05-14T05:58:17.398Z,9.34
2023-05-14T06:00:45.695Z,9.37
2023-05-14T06:03:23.576Z,9.38
2023-05-14T06:05:52.804Z,9.43
2023-05-14T06:08:21.122Z,9.47
2023-05-14T06:10:49.367Z,9.54
2023-05-14T06:13:17.845Z,9.59
2023-05-14T06:15:45.833Z,9.68
2023-05-14T06:18:13.874Z,9.75
2023-05-14T06:20:41.639Z,9.80
2023-05-14T06:23:12.477Z,9.83
2023-05-14T06:25:42.635Z,9.84
2023-05-14T06:28:21.836Z,9.84
2023-05-14T06:30:50.418Z,9.75
2023-05-14T06:33:20.009Z,9.70
2023-05-14T06:35:48.592Z,9.70
2023-05-14T06:38:18.947Z,9.72
2023-05-14T06:40:47.047Z,9.79
2023-05-14T06:43:15.533Z,9.88
2023-05-14T06:45:43.307Z,9.92
2023-05-14T06:48:11.348Z,9.91
2023-05-14T06:50:39.201Z,9.87
2023-05-14T06:53:12.939Z,9.83
2023-05-14T06:55:41.070Z,9.88
2023-05-14T06:58:16.724Z,9.91
2023-05-14T07:00:44.666Z,9.94
2023-05-14T07:03:12.743Z,9.98
2023-05-14T07:05:41.355Z,10.05
2023-05-14T07:12:02.455Z,10.22
2023-05-14T07:15:00.028Z,10.28
2023-05-14T07:17:29.801Z,10.24
2023-05-14T07:19:59.226Z,10.11
2023-05-14T07:22:27.199Z,9.98
2023-05-14T07:24:54.978Z,9.99
2023-05-14T07:27:23.163Z,10.11
2023-05-14T07:29:50.977Z,10.25
2023-05-14T07:32:19.000Z,10.31
2023-05-14T07:34:46.921Z,10.32
2023-05-14T07:37:14.732Z,10.33
2023-05-14T07:39:42.772Z,10.36
2023-05-14T07:42:21.897Z,10.39
2023-05-14T07:44:56.684Z,10.48
2023-05-14T07:47:37.438Z,10.64
2023-05-14T07:50:08.438Z,10.70
2023-05-14T07:52:36.244Z,10.70
2023-05-14T07:55:04.434Z,10.75
2023-05-14T07:57:38.104Z,10.79
2023-05-14T08:00:09.871Z,10.79
2023-05-14T08:02:38.258Z,10.93
2023-05-14T08:05:07.032Z,11.17
2023-05-14T08:07:52.326Z,11.34
2023-05-14T08:10:47.327Z,11.39
2023-05-14T08:13:16.193Z,11.52
2023-05-14T08:15:45.046Z,11.66
2023-05-14T08:18:18.147Z,11.83
2023-05-14T08:20:46.393Z,12.04
2023-05-14T08:23:14.599Z,12.15
2023-05-14T08:25:42.783Z,12.08
2023-05-14T08:28:10.870Z,12.09
2023-05-14T08:30:52.160Z,12.04
2023-05-14T08:33:23.908Z,12.08
2023-05-14T08:35:56.900Z,12.26
2023-05-14T08:38:35.318Z,12.41
2023-05-14T08:41:14.156Z,12.54
2023-05-14T08:44:05.632Z,12.65
2023-05-14T08:46:34.020Z,12.76
2023-05-14T08:49:53.391Z,12.88
2023-05-14T08:52:22.530Z,13.11
2023-05-14T08:54:51.369Z,13.33
2023-05-14T08:57:28.761Z,13.43
2023-05-14T08:59:57.258Z,13.37
2023-05-14T09:02:30.555Z,13.35
2023-05-14T09:05:01.259Z,13.28
2023-05-14T09:07:36.424Z,13.28
2023-05-14T09:10:13.241Z,13.27
2023-05-14T09:12:41.266Z,13.40
2023-05-14T09:15:09.447Z,13.47
2023-05-14T09:17:37.565Z,13.52
2023-05-14T09:20:06.856Z,13.73
2023-05-14T09:22:35.055Z,13.90
2023-05-14T09:25:17.618Z,14.20
2023-05-14T09:27:50.208Z,14.56
2023-05-14T09:30:18.246Z,14.83
2023-05-14T09:32:46.237Z,15.20
2023-05-14T09:35:17.609Z,15.53
2023-05-14T09:37:49.953Z,15.65
2023-05-14T09:40:24.662Z,15.70
2023-05-14T09:43:08.309Z,15.63
2023-05-14T09:45:36.856Z,15.81
2023-05-14T09:48:07.621Z,16.07
2023-05-14T09:50:56.318Z,16.33
2023-05-14T09:53:24.457Z,16.59
2023-05-14T09:55:52.638Z,16.84
2023-05-14T09:58:20.553Z,17.00
2023-05-14T10:00:49.237Z,17.10
2023-05-14T10:03:20.603Z,17.22
2023-05-14T10:13:39.291Z,16.62
2023-05-14T10:16:07.311Z,16.61
2023-05-14T10:18:41.235Z,16.75
2023-05-14T10:21:27.598Z,16.95
2023-05-14T10:23:55.880Z,16.97
2023-05-14T10:26:24.399Z,17.00
2023-05-14T10:28:56.006Z,17.10
2023-05-14T10:31:24.878Z,17.09
2023-05-14T10:33:54.804Z,17.12
2023-05-14T10:36:36.983Z,17.08
2023-05-14T10:39:08.126Z,17.00
2023-05-14T10:41:42.110Z,17.08
2023-05-14T10:44:11.331Z,17.11
2023-05-14T10:46:53.190Z,17.20
2023-05-14T10:49:39.746Z,17.43
2023-05-14T10:52:14.629Z,17.55
2023-05-14T10:54:53.952Z,17.72
2023-05-14T10:57:26.708Z,17.78
2023-05-14T10:59:55.761Z,17.69
2023-05-14T11:02:23.580Z,17.71
2023-05-14T11:05:03.843Z,17.89
2023-05-14T11:07:41.729Z,18.16
2023-05-14T11:10:10.832Z,18.38
2023-05-14T11:12:42.063Z,18.58
2023-05-14T11:15:31.282Z,18.78
2023-05-14T11:17:59.064Z,18.96
2023-05-14T11:20:27.115Z,19.12
2023-05-14T11:22:55.473Z,19.25
2023-05-14T11:25:25.753Z,19.36
2023-05-14T11:27:58.333Z,19.30
2023-05-14T11:30:26.380Z,19.23
2023-05-14T11:32:55.903Z,19.20
2023-05-14T11:35:23.816Z,19.18
2023-05-14T11:37:55.199Z,19.30
2023-05-14T11:40:23.523Z,19.41
2023-05-14T11:42:53.692Z,19.61
2023-05-14T11:45:26.461Z,19.85
2023-05-14T11:47:54.980Z,19.96
2023-05-14T11:50:23.362Z,20.00
2023-05-14T11:52:56.068Z,19.98
2023-05-14T11:55:26.987Z,20.02
2023-05-14T11:57:58.084Z,20.22
2023-05-14T12:00:26.903Z,20.44
2023-05-14T12:02:55.372Z,20.62
2023-05-14T12:05:25.915Z,20.76
2023-05-14T12:07:54.319Z,20.99
2023-05-14T12:10:26.975Z,21.20
2023-05-14T12:12:58.084Z,21.39
2023-05-14T12:15:27.244Z,21.52
2023-05-14T12:17:55.018Z,21.69
2023-05-14T12:20:23.988Z,21.68
2023-05-14T12:22:52.093Z,21.48
2023-05-14T12:25:20.244Z,21.38
2023-05-14T12:27:48.334Z,21.37
2023-05-14T12:30:21.893Z,21.44
2023-05-14T12:32:52.711Z,21.50
2023-05-14T12:35:21.733Z,21.70
2023-05-14T12:37:49.659Z,21.76
2023-05-14T12:40:17.909Z,21.70
2023-05-14T12:42:45.775Z,21.80
2023-05-14T12:45:13.635Z,22.03
2023-05-14T12:47:41.552Z,22.28
2023-05-14T12:50:09.717Z,22.47
2023-05-14T12:52:39.698Z,22.61
2023-05-14T12:55:09.137Z,22.76
2023-05-14T12:57:39.454Z,22.87
2023-05-14T13:00:08.617Z,23.00
2023-05-14T13:02:42.761Z,23.16
2023-05-14T13:05:12.054Z,23.11
2023-05-14T13:11:16.535Z,23.46
2023-05-14T13:13:44.222Z,23.59
2023-05-14T13:16:16.886Z,23.61
2023-05-14T13:18:48.419Z,23.63
2023-05-14T13:21:16.897Z,23.62
2023-05-14T13:23:45.079Z,23.50
2023-05-14T13:26:14.581Z,23.56
2023-05-14T13:28:46.083Z,23.61
2023-05-14T13:31:16.663Z,23.50
2023-05-14T13:33:45.284Z,23.45
2023-05-14T13:36:13.935Z,23.51
2023-05-14T13:38:51.778Z,23.59
2023-05-14T13:41:19.832Z,23.60
2023-05-14T13:43:47.916Z,23.69
2023-05-14T13:46:15.972Z,23.75
2023-05-14T13:48:43.748Z,23.91
2023-05-14T13:54:59.350Z,24.06
2023-05-14T14:04:39.214Z,24.24
2023-05-14T14:07:07.013Z,24.29
2023-05-14T14:09:36.924Z,24.37
2023-05-14T14:16:34.352Z,23.89
2023-05-14T14:26:47.510Z,23.92
2023-05-14T14:32:57.876Z,23.64
2023-05-14T14:35:25.784Z,23.63
2023-05-14T14:37:53.989Z,23.79
2023-05-14T14:40:23.664Z,23.88
2023-05-14T14:43:12.654Z,23.98
2023-05-14T14:46:12.285Z,23.98
2023-05-14T14:48:50.075Z,24.15
2023-05-14T14:51:20.241Z,24.25
2023-05-14T14:54:02.813Z,24.21
2023-05-14T14:56:31.446Z,24.05
2023-05-14T14:58:59.826Z,23.80
2023-05-14T15:01:28.022Z,23.67
2023-05-14T15:03:55.838Z,23.57
2023-05-14T15:09:27.518Z,23.98
2023-05-14T15:12:18.601Z,24.25
2023-05-14T15:14:46.746Z,24.55
2023-05-14T15:17:22.252Z,24.84
2023-05-14T15:19:52.774Z,25.09
2023-05-14T15:22:20.701Z,25.19
2023-05-14T15:24:55.341Z,25.36
2023-05-14T15:27:23.494Z,25.46
2023-05-14T15:29:51.220Z,25.39
2023-05-14T15:32:19.013Z,25.39
2023-05-14T15:34:46.742Z,25.16
2023-05-14T15:37:27.149Z,24.92
2023-05-14T15:39:55.882Z,24.81
2023-05-14T15:42:26.456Z,24.49
2023-05-14T15:44:55.574Z,24.16
2023-05-14T15:47:23.466Z,23.84
2023-05-14T15:49:51.600Z,23.47
2023-05-14T15:52:19.444Z,23.15
2023-05-14T15:54:50.319Z,22.78
2023-05-14T15:57:20.013Z,22.60
2023-05-14T15:59:48.529Z,22.43
2023-05-14T16:02:16.804Z,22.39
2023-05-14T16:04:53.372Z,22.40
2023-05-14T16:07:40.394Z,22.45
2023-05-14T16:10:11.630Z,22.54
2023-05-14T16:13:01.352Z,22.66
2023-05-14T16:15:45.910Z,22.79
2023-05-14T16:18:24.524Z,22.87
2023-05-14T16:25:07.402Z,22.60
2023-05-14T16:27:40.900Z,22.39
2023-05-14T16:30:12.638Z,22.24
2023-05-14T16:32:49.055Z,22.13
2023-05-14T16:35:26.390Z,22.17
2023-05-14T16:38:26.911Z,22.44
2023-05-14T16:41:07.042Z,22.65
2023-05-14T16:43:43.631Z,22.73
2023-05-14T16:46:15.650Z,22.86
2023-05-14T17:32:49.055Z,21.30
2023-05-14T17:36:02.175Z,21.20
2023-05-14T17:43:25.668Z,20.96
2023-05-14T18:44:27.461Z,19.94
2023-05-14T18:51:34.329Z,19.80
2023-05-14T18:55:01.114Z,19.74
2023-05-14T19:06:06.813Z,19.48
2023-05-14T19:47:30.792Z,18.32
2023-05-14T19:54:16.418Z,18.19
2023-05-14T22:54:47.113Z,14.40
2023-05-14T22:57:32.319Z,14.33
